Time;durP1;ratioP1;P1;durP2;ratioP2;P2;SDS_P1;SDS_P2;PMS_P1;PMS_P2;Temp;Humidity;BMP_temperature;BMP_pressure;BME280_temperature;BME280_humidity;BME280_pressure;Samples;Min_cycle;Max_cycle;Signal;HPM_P1;HPM_P2
2023/07/23 00:01:42;;;;;;;15.75;9.25;;;;;;;15.38;100.00;100842.47;4904822;29;20045;-54
2023/07/23 00:04:07;;;;;;;17.63;9.82;;;;;;;15.41;100.00;100845.09;4911318;29;20024;-55
2023/07/23 00:06:33;;;;;;;16.80;9.70;;;;;;;15.42;100.00;100838.94;4900515;29;20120;-54
2023/07/23 00:08:58;;;;;;;14.02;9.40;;;;;;;15.45;100.00;100828.47;4899800;29;20115;-54
2023/07/23 00:11:24;;;;;;;16.13;9.65;;;;;;;15.45;100.00;100828.47;4907459;29;20166;-54
2023/07/23 00:13:49;;;;;;;16.90;9.82;;;;;;;15.46;100.00;100827.59;4904521;29;20028;-55
2023/07/23 00:16:14;;;;;;;17.63;10.63;;;;;;;15.50;100.00;100825.84;4902814;29;20024;-55
2023/07/23 00:18:40;;;;;;;17.92;9.75;;;;;;;15.51;100.00;100826.72;4902314;29;20114;-54
2023/07/23 00:21:05;;;;;;;16.55;10.20;;;;;;;15.52;100.00;100820.63;4898907;29;20084;-55
2023/07/23 00:23:30;;;;;;;16.65;10.30;;;;;;;15.50;100.00;100817.97;4896996;29;20281;-54
2023/07/23 00:25:56;;;;;;;16.63;10.20;;;;;;;15.50;100.00;100810.09;4906482;29;20398;-55
2023/07/23 00:28:21;;;;;;;16.83;10.32;;;;;;;15.46;100.00;100803.09;4901016;29;20490;-55
2023/07/23 00:30:46;;;;;;;18.63;9.95;;;;;;;15.48;100.00;100799.59;4905453;29;20028;-54
2023/07/23 00:33:12;;;;;;;16.13;10.10;;;;;;;15.50;100.00;100796.97;4899764;29;20036;-54
2023/07/23 00:35:38;;;;;;;17.17;10.32;;;;;;;15.51;100.00;100793.47;4908348;29;20395;-55
2023/07/23 00:38:03;;;;;;;17.63;10.27;;;;;;;15.53;99.80;100790.84;4903611;29;20515;-55
2023/07/23 00:40:28;;;;;;;21.00;10.57;;;;;;;15.50;100.00;100793.44;4908571;29;20028;-55
2023/07/23 00:42:54;;;;;;;21.48;10.98;;;;;;;15.46;100.00;100774.19;4906916;29;20084;-55
2023/07/23 00:45:19;;;;;;;18.67;11.13;;;;;;;15.44;100.00;100781.22;4897705;29;20324;-54
2023/07/23 00:47:45;;;;;;;18.02;10.63;;;;;;;15.44;100.00;100775.97;4897366;29;20033;-54
2023/07/23 00:50:12;;;;;;;18.48;10.70;;;;;;;15.42;100.00;100762.78;4897570;29;20075;-54
2023/07/23 00:52:38;;;;;;;18.90;10.65;;;;;;;15.44;100.00;100758.44;4898312;29;20096;-54
2023/07/23 00:55:04;;;;;;;17.83;10.02;;;;;;;15.40;100.00;100756.69;4897765;29;20028;-54
2023/07/23 00:57:30;;;;;;;20.45;11.25;;;;;;;15.39;100.00;100741.78;4895916;29;20111;-54
2023/07/23 00:59:56;;;;;;;16.80;10.27;;;;;;;15.39;100.00;100751.44;4897395;29;20130;-54
2023/07/23 01:02:23;;;;;;;19.95;10.88;;;;;;;15.36;100.00;100747.03;4913185;29;20087;-54
2023/07/23 01:04:48;;;;;;;17.40;9.82;;;;;;;15.35;99.32;100737.44;4915700;29;20063;-54
2023/07/23 01:07:15;;;;;;;22.98;11.07;;;;;;;15.32;100.00;100745.28;4905793;29;20511;-54
2023/07/23 01:09:41;;;;;;;21.55;10.98;;;;;;;15.28;100.00;100733.03;4915607;29;20068;-54
2023/07/23 01:12:07;;;;;;;19.25;10.75;;;;;;;15.34;100.00;100725.16;4915633;29;20059;-54
2023/07/23 01:14:32;;;;;;;21.20;10.55;;;;;;;15.36;100.00;100726.03;4916100;29;20171;-54
2023/07/23 01:16:59;;;;;;;20.38;12.02;;;;;;;15.34;100.00;100725.16;4914430;29;20032;-54
2023/07/23 01:19:26;;;;;;;21.42;11.27;;;;;;;15.35;100.00;100716.44;4915509;29;20554;-54
2023/07/23 01:21:59;;;;;;;20.55;11.50;;;;;;;15.36;100.00;100714.66;4913802;29;20020;-54
2023/07/23 01:24:25;;;;;;;23.35;12.07;;;;;;;15.38;100.00;100703.31;4914065;29;20036;-54
2023/07/23 01:26:50;;;;;;;20.52;11.95;;;;;;;15.39;100.00;100702.41;4914649;29;20399;-55
2023/07/23 01:29:15;;;;;;;21.77;12.40;;;;;;;15.40;100.00;100706.78;4897867;29;20414;-54
2023/07/23 01:31:41;;;;;;;23.42;12.10;;;;;;;15.36;100.00;100693.66;4912949;29;20056;-54
2023/07/23 01:34:06;;;;;;;25.77;13.40;;;;;;;15.33;100.00;100696.28;4914639;29;20032;-54
2023/07/23 01:36:32;;;;;;;21.55;12.93;;;;;;;15.31;100.00;100693.66;4913202;29;20087;-54
2023/07/23 01:38:57;;;;;;;22.52;12.18;;;;;;;15.27;100.00;100684.91;4914780;29;20039;-54
2023/07/23 01:41:24;;;;;;;25.80;13.18;;;;;;;15.28;100.00;100685.78;4913702;29;20407;-54
2023/07/23 01:43:49;;;;;;;22.63;12.25;;;;;;;15.27;100.00;100678.78;4911998;29;20407;-54
2023/07/23 01:46:15;;;;;;;24.85;12.70;;;;;;;15.26;100.00;100680.50;4911114;29;20448;-54
2023/07/23 01:48:40;;;;;;;23.88;13.00;;;;;;;15.27;100.00;100671.75;4914404;29;20036;-54
2023/07/23 01:51:06;;;;;;;26.50;13.65;;;;;;;15.29;100.00;100677.00;4915183;29;20063;-54
2023/07/23 01:53:31;;;;;;;23.33;13.10;;;;;;;15.29;100.00;100670.03;4912791;29;20044;-54
2023/07/23 01:55:58;;;;;;;22.38;13.27;;;;;;;15.32;100.00;100663.03;4896821;29;20028;-54
2023/07/23 01:58:24;;;;;;;27.50;13.25;;;;;;;15.28;100.00;100649.03;4912364;29;20032;-54
2023/07/23 02:00:49;;;;;;;26.50;12.88;;;;;;;15.27;100.00;100650.75;4911016;29;20420;-54
2023/07/23 02:03:15;;;;;;;26.55;14.15;;;;;;;15.23;100.00;100649.00;4913246;29;20028;-54
2023/07/23 02:05:40;;;;;;;23.17;13.02;;;;;;;15.23;100.00;100653.38;4913090;29;20047;-54
2023/07/23 02:08:05;;;;;;;21.08;12.10;;;;;;;15.19;97.08;100646.38;4912811;29;20247;-54
2023/07/23 02:10:31;;;;;;;26.20;14.38;;;;;;;15.19;100.00;100641.13;4913629;29;20024;-54
2023/07/23 02:12:56;;;;;;;31.27;15.23;;;;;;;15.11;100.00;100636.75;4905025;29;20040;-54
2023/07/23 02:15:21;;;;;;;26.70;14.93;;;;;;;15.08;100.00;100631.50;4914183;29;20016;-54
2023/07/23 02:17:46;;;;;;;26.88;14.63;;;;;;;15.05;100.00;100634.13;4914512;29;20032;-54
2023/07/23 02:20:12;;;;;;;29.77;16.05;;;;;;;15.04;100.00;100629.75;4913059;29;20451;-54
2023/07/23 02:22:37;;;;;;;27.70;14.88;;;;;;;15.05;100.00;100630.63;4912840;29;20550;-54
2023/07/23 02:25:03;;;;;;;27.88;16.13;;;;;;;15.03;100.00;100614.84;4912078;29;20553;-54
2023/07/23 02:27:28;;;;;;;29.77;15.23;;;;;;;15.05;100.00;100615.75;4914274;29;20060;-54
2023/07/23 02:29:54;;;;;;;31.40;16.20;;;;;;;15.05;100.00;100605.25;4913385;29;20048;-54
2023/07/23 02:32:19;;;;;;;31.27;15.05;;;;;;;15.08;100.00;100612.25;4913944;29;20043;-54
2023/07/23 02:34:44;;;;;;;25.65;13.02;;;;;;;15.09;99.17;100609.63;4911705;29;20032;-54
2023/07/23 02:37:09;;;;;;;26.00;12.15;;;;;;;15.12;98.05;100601.78;4911181;29;20111;-54
2023/07/23 02:39:35;;;;;;;22.95;11.70;;;;;;;15.19;96.46;100602.63;4912481;29;20044;-54
2023/07/23 02:42:00;;;;;;;25.20;11.70;;;;;;;15.26;95.86;100598.28;4913206;29;20032;-54
2023/07/23 02:44:25;;;;;;;25.48;11.90;;;;;;;15.30;94.84;100598.25;4912598;29;20062;-54
2023/07/23 02:46:51;;;;;;;21.10;11.20;;;;;;;15.33;92.54;100600.03;4913086;29;20412;-54
2023/07/23 02:49:16;;;;;;;25.95;10.70;;;;;;;15.37;93.06;100599.16;4896527;29;20028;-54
2023/07/23 02:51:42;;;;;;;19.23;10.30;;;;;;;15.41;91.73;100598.28;4910915;29;20035;-53
2023/07/23 02:54:08;;;;;;;18.80;10.05;;;;;;;15.45;91.91;100596.50;4914146;29;20020;-53
2023/07/23 02:56:34;;;;;;;21.65;10.30;;;;;;;15.47;91.16;100587.75;4897447;29;20035;-54
2023/07/23 02:59:01;;;;;;;23.42;9.98;;;;;;;15.50;91.29;100586.00;4914193;29;20407;-54
2023/07/23 03:01:26;;;;;;;19.10;9.82;;;;;;;15.51;90.29;100588.66;4912878;29;20052;-54
2023/07/23 03:03:52;;;;;;;21.33;10.35;;;;;;;15.53;90.04;100591.28;4914237;29;20036;-54
2023/07/23 03:06:17;;;;;;;23.60;10.18;;;;;;;15.55;89.95;100584.25;4902219;29;20563;-54
2023/07/23 03:08:42;;;;;;;19.23;9.55;;;;;;;15.56;89.16;100592.13;4914392;29;20039;-54
2023/07/23 03:11:08;;;;;;;18.52;9.88;;;;;;;15.59;88.56;100589.50;4913354;29;20032;-54
2023/07/23 03:13:33;;;;;;;23.20;9.32;;;;;;;15.60;88.56;100583.38;4895173;29;20032;-54
2023/07/23 03:15:58;;;;;;;19.25;9.55;;;;;;;15.62;87.93;100586.00;4899279;29;20395;-54
2023/07/23 03:18:24;;;;;;;17.73;9.18;;;;;;;15.64;88.70;100576.34;4914056;29;20032;-54
2023/07/23 03:20:49;;;;;;;18.90;9.85;;;;;;;15.64;88.32;100582.50;4914091;29;20039;-53
2023/07/23 03:23:15;;;;;;;18.70;8.70;;;;;;;15.64;87.23;100577.25;4905473;29;20043;-53
2023/07/23 03:25:40;;;;;;;20.42;9.23;;;;;;;15.67;86.89;100568.50;4909922;29;20043;-54
2023/07/23 03:28:05;;;;;;;19.77;9.00;;;;;;;15.67;87.19;100572.84;4911122;29;20028;-54
2023/07/23 03:30:31;;;;;;;20.77;9.63;;;;;;;15.68;86.69;100582.50;4912296;29;20458;-53
2023/07/23 03:32:56;;;;;;;19.70;8.90;;;;;;;15.68;86.69;100575.47;4912894;29;20024;-53
2023/07/23 03:35:22;;;;;;;18.33;8.75;;;;;;;15.71;85.75;100570.22;4913852;29;20119;-52
2023/07/23 03:37:48;;;;;;;21.55;8.55;;;;;;;15.71;85.89;100572.84;4916826;29;20036;-54
2023/07/23 03:40:13;;;;;;;21.13;9.50;;;;;;;15.73;85.21;100570.22;4916204;29;20024;-54
2023/07/23 03:42:38;;;;;;;20.67;8.38;;;;;;;15.74;85.23;100577.22;4915285;29;20035;-53
2023/07/23 03:45:04;;;;;;;20.27;8.93;;;;;;;15.75;85.60;100578.97;4908126;29;20438;-53
2023/07/23 03:47:30;;;;;;;17.35;8.10;;;;;;;15.75;84.44;100571.97;4915669;29;20500;-54
2023/07/23 03:49:55;;;;;;;18.60;9.40;;;;;;;15.77;84.77;100570.22;4916930;29;20081;-53
2023/07/23 03:52:22;;;;;;;18.88;8.98;;;;;;;15.78;84.69;100576.34;4916667;29;20028;-54
2023/07/23 03:54:47;;;;;;;15.70;8.45;;;;;;;15.78;83.80;100571.97;4916513;29;20510;-54
2023/07/23 03:57:13;;;;;;;17.75;8.00;;;;;;;15.78;84.39;100566.72;4915010;29;20032;-53
2023/07/23 03:59:40;;;;;;;18.75;8.98;;;;;;;15.78;84.07;100571.09;4917362;29;20517;-54
2023/07/23 04:02:06;;;;;;;18.27;8.38;;;;;;;15.79;83.59;100563.22;4916281;29;20044;-54
2023/07/23 04:04:32;;;;;;;15.85;8.25;;;;;;;15.78;83.98;100573.72;4915852;29;20446;-53
2023/07/23 04:06:58;;;;;;;15.70;7.72;;;;;;;15.80;83.55;100578.13;4915717;29;20036;-53
2023/07/23 04:09:23;;;;;;;17.27;8.75;;;;;;;15.80;83.83;100578.13;4916225;29;20323;-54
2023/07/23 04:11:48;;;;;;;15.65;7.68;;;;;;;15.81;82.89;100572.00;4914516;29;20039;-54
2023/07/23 04:14:14;;;;;;;16.52;7.75;;;;;;;15.83;82.37;100572.00;4915543;29;20111;-54
2023/07/23 04:16:39;;;;;;;14.50;7.63;;;;;;;15.83;82.36;100577.25;4915147;29;20239;-54
2023/07/23 04:19:04;;;;;;;15.95;7.75;;;;;;;15.85;83.24;100577.25;4917050;29;20063;-53
2023/07/23 04:21:30;;;;;;;18.30;8.38;;;;;;;15.84;83.38;100571.09;4915813;29;20036;-53
2023/07/23 04:23:57;;;;;;;14.80;7.88;;;;;;;15.85;82.85;100574.63;4912982;29;20035;-53
2023/07/23 04:26:22;;;;;;;16.92;8.02;;;;;;;15.85;82.78;100575.47;4904080;29;20094;-54
2023/07/23 04:28:48;;;;;;;16.77;7.75;;;;;;;15.87;82.70;100575.47;4915027;29;20494;-53
2023/07/23 04:31:13;;;;;;;16.40;7.15;;;;;;;15.89;82.19;100578.97;4915829;29;20087;-53
2023/07/23 04:33:39;;;;;;;15.25;7.88;;;;;;;15.89;81.97;100574.59;4915282;29;20099;-53
2023/07/23 04:36:06;;;;;;;17.95;8.43;;;;;;;15.92;81.34;100576.34;4915578;29;20395;-53
2023/07/23 04:38:32;;;;;;;16.58;7.47;;;;;;;15.94;81.78;100571.94;4913482;29;20040;-54
2023/07/23 04:40:57;;;;;;;17.52;7.63;;;;;;;15.96;82.02;100578.06;4916044;29;20028;-53
2023/07/23 04:43:22;;;;;;;16.40;7.50;;;;;;;15.97;81.73;100582.44;4916124;29;20043;-53
2023/07/23 04:45:48;;;;;;;16.83;7.90;;;;;;;15.99;81.39;100576.31;4916225;29;20395;-53
2023/07/23 04:48:14;;;;;;;13.05;7.10;;;;;;;16.00;81.45;100574.56;4912090;29;20042;-53
2023/07/23 04:50:40;;;;;;;13.05;7.18;;;;;;;16.02;81.37;100571.91;4916522;29;20400;-53
2023/07/23 04:53:05;;;;;;;19.50;7.80;;;;;;;16.02;80.57;100564.03;4915646;29;20391;-53
2023/07/23 04:55:32;;;;;;;15.60;7.03;;;;;;;16.03;80.69;100571.06;4916339;29;20036;-53
2023/07/23 04:57:57;;;;;;;13.93;6.65;;;;;;;16.04;80.37;100572.81;4899291;29;20368;-53
2023/07/23 05:00:23;;;;;;;14.13;6.85;;;;;;;16.07;79.90;100564.91;4915349;29;20052;-53
2023/07/23 05:02:48;;;;;;;17.05;6.78;;;;;;;16.09;80.60;100571.03;4897576;29;20028;-53
2023/07/23 05:05:13;;;;;;;14.25;6.88;;;;;;;16.10;81.01;100562.25;4896844;29;20032;-54
2023/07/23 05:07:39;;;;;;;13.75;6.95;;;;;;;16.09;80.78;100564.03;4896634;29;20060;-53
2023/07/23 05:10:04;;;;;;;13.23;7.05;;;;;;;16.09;80.70;100574.53;4897496;29;20029;-53
2023/07/23 05:12:30;;;;;;;17.33;7.10;;;;;;;16.09;80.76;100566.66;4897107;29;20037;-53
2023/07/23 05:15:09;;;;;;;15.60;7.35;;;;;;;16.10;81.65;100572.78;4897421;29;20195;-54
2023/07/23 05:17:34;;;;;;;;;;;;;;;16.11;81.72;100572.78;4894010;29;20080;-54
2023/07/23 05:19:59;;;;;;;13.73;6.57;;;;;;;16.09;81.33;100582.44;4897096;29;19911;-53
2023/07/23 05:22:25;;;;;;;12.77;6.85;;;;;;;16.09;81.04;100581.53;4896260;29;20075;-53
2023/07/23 05:24:50;;;;;;;14.48;6.43;;;;;;;16.09;82.07;100577.16;4896668;29;20024;-53
2023/07/23 05:27:15;;;;;;;12.90;6.45;;;;;;;16.08;82.05;100571.91;4896120;29;20029;-53
2023/07/23 05:29:40;;;;;;;13.38;6.60;;;;;;;16.08;81.42;100570.16;4895143;29;20492;-53
2023/07/23 05:32:06;;;;;;;14.52;7.22;;;;;;;16.07;82.01;100573.66;4895112;29;20029;-53
2023/07/23 05:34:31;;;;;;;13.13;6.60;;;;;;;16.07;82.59;100568.41;4896192;29;20040;-54
2023/07/23 05:36:57;;;;;;;15.32;7.13;;;;;;;16.06;83.14;100571.03;4894446;29;20029;-54
2023/07/23 05:39:22;;;;;;;13.95;6.88;;;;;;;16.04;83.61;100568.41;4894542;29;20028;-54
2023/07/23 05:41:47;;;;;;;15.02;7.22;;;;;;;16.03;83.64;100569.28;4894091;29;20040;-54
2023/07/23 05:44:13;;;;;;;12.45;6.30;;;;;;;16.04;83.03;100565.78;4894033;29;20028;-54
2023/07/23 05:46:38;;;;;;;13.57;6.40;;;;;;;16.04;83.40;100560.53;4895751;29;20448;-54
2023/07/23 05:49:03;;;;;;;14.73;7.10;;;;;;;16.03;83.24;100566.66;4891301;29;20066;-54
2023/07/23 05:51:28;;;;;;;13.10;6.20;;;;;;;16.01;83.70;100568.44;4895091;29;20071;-54
2023/07/23 05:53:54;;;;;;;11.90;5.95;;;;;;;16.00;83.74;100569.28;4894471;29;20043;-54
2023/07/23 05:56:19;;;;;;;15.57;6.47;;;;;;;15.98;84.34;100573.69;4893658;29;20028;-54
2023/07/23 05:58:44;;;;;;;12.73;6.65;;;;;;;15.97;83.59;100566.69;4893250;29;20043;-54
2023/07/23 06:01:10;;;;;;;14.82;6.72;;;;;;;15.96;84.05;100563.19;4900761;29;20756;-54
2023/07/23 06:03:35;;;;;;;13.75;6.43;;;;;;;15.96;83.90;100564.94;4910900;29;20115;-54
2023/07/23 06:06:00;;;;;;;12.48;6.07;;;;;;;15.96;83.82;100559.66;4907113;29;20047;-54
2023/07/23 06:08:25;;;;;;;14.93;6.43;;;;;;;15.97;84.46;100561.44;4912220;29;20051;-54
2023/07/23 06:10:51;;;;;;;13.77;6.10;;;;;;;15.97;84.95;100559.69;4913329;29;20032;-53
2023/07/23 06:13:16;;;;;;;13.32;6.55;;;;;;;15.98;84.93;100566.69;4912991;29;20031;-54
2023/07/23 06:15:41;;;;;;;13.10;6.55;;;;;;;15.99;84.85;100568.44;4913069;29;20184;-54
2023/07/23 06:18:06;;;;;;;14.57;6.95;;;;;;;15.99;86.23;100575.47;4912969;29;20447;-54
2023/07/23 06:20:40;;;;;;;11.60;6.03;;;;;;;15.96;85.57;100578.06;5059014;28;20394;-52
2023/07/23 06:23:05;;;;;;;14.13;6.45;;;;;;;15.95;85.86;100576.34;5072719;28;20032;-52
2023/07/23 06:25:31;;;;;;;16.60;6.10;;;;;;;15.88;86.46;100580.72;5070064;28;20029;-53
2023/07/23 06:27:56;;;;;;;12.43;6.10;;;;;;;15.82;87.36;100573.72;5065818;28;20114;-53
2023/07/23 06:30:21;;;;;;;11.80;6.50;;;;;;;15.82;87.89;100567.63;5060772;28;20028;-53
2023/07/23 06:32:47;;;;;;;11.20;6.03;;;;;;;15.75;88.56;100573.72;5052876;28;20102;-53
2023/07/23 06:35:12;;;;;;;13.23;6.50;;;;;;;15.74;88.28;100578.13;5067675;28;20113;-53
2023/07/23 06:37:39;;;;;;;13.77;6.10;;;;;;;15.76;88.31;100583.38;5066204;28;21009;-53
2023/07/23 06:40:05;;;;;;;12.38;6.57;;;;;;;15.76;89.44;100583.38;5068245;28;20031;-53
2023/07/23 06:42:30;;;;;;;16.50;6.53;;;;;;;15.75;88.64;100587.72;5073509;28;20042;-53
2023/07/23 06:44:56;;;;;;;11.43;6.18;;;;;;;15.81;89.14;100594.75;5069727;28;20025;-53
2023/07/23 06:47:21;;;;;;;14.57;7.43;;;;;;;15.82;88.89;100594.75;5061559;28;20498;-53
2023/07/23 06:49:46;;;;;;;13.10;6.28;;;;;;;15.85;88.58;100603.53;5071079;28;20031;-53
2023/07/23 06:52:11;;;;;;;14.90;6.05;;;;;;;15.85;88.69;100598.25;5077846;28;20569;-53
2023/07/23 06:54:40;;;;;;;13.25;6.03;;;;;;;15.84;89.60;100599.13;5066995;28;20025;-53
2023/07/23 06:57:06;;;;;;;14.07;6.05;;;;;;;15.82;89.74;100599.13;5067135;28;20111;-52
2023/07/23 06:59:32;;;;;;;13.57;5.95;;;;;;;15.78;90.53;100602.63;5074610;28;20107;-53
2023/07/23 07:01:57;;;;;;;17.13;6.97;;;;;;;15.72;92.50;100611.38;5065898;28;20037;-53
2023/07/23 07:04:22;;;;;;;15.52;6.78;;;;;;;15.70;92.61;100607.88;5057092;28;20094;-53
2023/07/23 07:06:47;;;;;;;15.70;6.43;;;;;;;15.59;94.54;100607.88;5059144;28;20410;-53
2023/07/23 07:09:13;;;;;;;16.13;7.22;;;;;;;15.57;96.12;100608.75;5057071;28;20063;-54
2023/07/23 07:11:38;;;;;;;14.20;6.72;;;;;;;15.46;95.65;100608.78;5059505;28;20087;-54
2023/07/23 07:14:04;;;;;;;16.27;6.90;;;;;;;15.35;96.65;100598.28;5049866;28;20039;-54
2023/07/23 07:16:29;;;;;;;15.07;6.90;;;;;;;15.33;98.21;100599.16;5052709;28;20028;-54
2023/07/23 07:18:55;;;;;;;14.48;7.22;;;;;;;15.29;100.00;100603.50;5048814;28;20041;-54
2023/07/23 07:21:20;;;;;;;17.80;7.65;;;;;;;15.26;100.00;100601.75;5062138;28;20437;-54
2023/07/23 07:23:45;;;;;;;16.52;6.53;;;;;;;15.21;100.00;100593.03;5049481;28;20028;-55
2023/07/23 07:26:11;;;;;;;17.40;7.60;;;;;;;15.19;100.00;100596.50;5063307;28;20052;-54
2023/07/23 07:28:36;;;;;;;15.55;6.78;;;;;;;15.15;100.00;100594.75;5066268;28;20082;-54
2023/07/23 07:31:03;;;;;;;17.75;7.30;;;;;;;15.15;100.00;100594.75;5053879;28;20108;-54
2023/07/23 07:33:29;;;;;;;20.40;8.20;;;;;;;15.13;100.00;100603.53;5044545;28;20079;-54
2023/07/23 07:35:56;;;;;;;15.45;7.47;;;;;;;15.10;100.00;100600.88;5035664;28;20025;-55
2023/07/23 07:38:21;;;;;;;16.83;7.20;;;;;;;15.16;100.00;100596.53;5043336;28;20025;-54
2023/07/23 07:40:51;;;;;;;18.92;7.93;;;;;;;15.17;100.00;100596.50;5040897;28;20542;-54
2023/07/23 07:43:16;;;;;;;19.50;8.15;;;;;;;15.19;100.00;100596.50;5053129;28;20039;-55
2023/07/23 07:45:41;;;;;;;17.73;7.47;;;;;;;15.21;100.00;100598.28;5053123;28;20021;-54
2023/07/23 07:48:09;;;;;;;22.95;8.13;;;;;;;15.20;100.00;100595.66;5039851;28;20487;-55
2023/07/23 07:50:34;;;;;;;21.10;8.20;;;;;;;15.24;100.00;100597.41;5048997;28;20032;-55
2023/07/23 07:52:59;;;;;;;19.80;8.48;;;;;;;15.31;100.00;100601.78;5039866;28;20243;-55
2023/07/23 07:55:24;;;;;;;22.40;8.18;;;;;;;15.38;100.00;100600.00;5041340;28;20448;-54
2023/07/23 07:57:50;;;;;;;20.27;7.85;;;;;;;15.45;100.00;100593.88;5037854;28;20026;-54
2023/07/23 08:00:16;;;;;;;21.90;9.05;;;;;;;15.47;100.00;100598.28;5037001;28;20029;-55
2023/07/23 08:02:41;;;;;;;20.83;8.30;;;;;;;15.44;100.00;100598.28;5037509;28;20037;-55
2023/07/23 08:05:07;;;;;;;20.60;9.60;;;;;;;15.49;100.00;100606.13;5047998;28;20029;-54
2023/07/23 08:07:34;;;;;;;21.23;8.82;;;;;;;15.52;100.00;100594.78;5052274;28;20024;-54
2023/07/23 08:10:00;;;;;;;22.50;9.05;;;;;;;15.57;100.00;100596.53;5042228;28;20021;-54
2023/07/23 08:12:26;;;;;;;20.08;9.20;;;;;;;15.64;100.00;100605.25;5041139;28;20395;-54
2023/07/23 08:14:53;;;;;;;21.20;9.18;;;;;;;15.64;100.00;100603.50;5044462;28;20056;-54
2023/07/23 08:17:19;;;;;;;20.38;9.18;;;;;;;15.67;100.00;100589.50;5036838;28;20476;-54
2023/07/23 08:19:44;;;;;;;20.70;9.00;;;;;;;15.66;100.00;100598.25;5051852;28;20053;-54
2023/07/23 08:22:10;;;;;;;22.27;8.68;;;;;;;15.64;100.00;100602.63;5047736;28;20028;-54
2023/07/23 08:24:36;;;;;;;21.33;7.93;;;;;;;15.64;100.00;100600.00;5051302;28;20032;-54
2023/07/23 08:27:03;;;;;;;19.20;8.30;;;;;;;15.67;100.00;100600.03;5052350;28;20033;-55
2023/07/23 08:29:30;;;;;;;19.25;7.53;;;;;;;15.70;100.00;100592.13;5048217;28;20037;-55
2023/07/23 08:31:59;;;;;;;20.17;7.72;;;;;;;15.76;100.00;100594.75;5038495;28;20022;-54
2023/07/23 08:34:26;;;;;;;;;;;;;;;15.79;100.00;100588.63;5030318;28;20116;-54
2023/07/23 08:36:51;;;;;;;19.13;7.32;;;;;;;15.77;100.00;100601.75;5042198;28;19921;-55
2023/07/23 08:39:17;;;;;;;20.23;7.93;;;;;;;15.80;100.00;100593.88;5042431;28;20404;-55
2023/07/23 08:41:59;;;;;;;16.13;7.13;;;;;;;15.83;100.00;100590.38;5043273;28;20057;-54
2023/07/23 08:44:56;;;;;;;18.15;7.13;;;;;;;15.85;100.00;100599.13;5039133;28;20025;-54
2023/07/23 08:47:22;;;;;;;16.05;7.10;;;;;;;15.87;100.00;100591.25;5041841;28;20043;-54
2023/07/23 08:49:48;;;;;;;15.15;6.75;;;;;;;15.89;100.00;100602.59;5035330;28;20491;-54
2023/07/23 08:52:14;;;;;;;14.35;6.68;;;;;;;15.87;100.00;100596.50;5042137;28;20114;-54
2023/07/23 08:54:41;;;;;;;17.35;6.32;;;;;;;15.91;100.00;100603.50;5039142;28;20100;-54
2023/07/23 08:57:07;;;;;;;16.33;6.88;;;;;;;15.92;100.00;100602.63;5051712;28;20037;-54
2023/07/23 08:59:33;;;;;;;15.18;6.13;;;;;;;15.91;100.00;100598.25;5036069;28;20037;-54
2023/07/23 09:02:00;;;;;;;15.38;6.43;;;;;;;15.91;100.00;100596.47;5036685;28;20131;-54
2023/07/23 09:04:26;;;;;;;12.32;5.88;;;;;;;15.95;100.00;100600.00;5046480;28;20028;-54
2023/07/23 09:06:51;;;;;;;16.45;5.78;;;;;;;15.99;100.00;100607.00;5039251;28;20017;-54
2023/07/23 09:09:18;;;;;;;12.50;5.55;;;;;;;16.01;100.00;100605.22;5034386;28;20022;-54
2023/07/23 09:11:43;;;;;;;12.13;5.55;;;;;;;16.02;100.00;100606.09;5034533;28;20037;-54
2023/07/23 09:14:11;;;;;;;11.77;5.80;;;;;;;16.02;100.00;100601.72;5033605;28;20040;-54
2023/07/23 09:16:39;;;;;;;11.43;5.35;;;;;;;16.04;100.00;100605.22;5030791;28;20120;-54
2023/07/23 09:19:07;;;;;;;11.80;5.50;;;;;;;16.07;100.00;100609.59;5043938;28;20055;-54
2023/07/23 09:21:32;;;;;;;10.75;5.45;;;;;;;16.05;100.00;100612.22;5049440;28;20495;-54
2023/07/23 09:23:58;;;;;;;10.77;5.13;;;;;;;16.09;100.00;100608.72;5050664;28;20082;-54
2023/07/23 09:26:27;;;;;;;10.25;5.20;;;;;;;16.10;100.00;100606.94;5050012;28;20016;-54
2023/07/23 09:28:54;;;;;;;11.80;5.07;;;;;;;16.07;100.00;100599.94;5047223;28;20017;-54
2023/07/23 09:31:23;;;;;;;10.38;4.88;;;;;;;16.04;100.00;100599.94;5050964;28;20021;-55
2023/07/23 09:33:51;;;;;;;8.77;4.57;;;;;;;16.00;100.00;100611.34;5049584;28;20021;-55
2023/07/23 09:36:19;;;;;;;11.13;4.40;;;;;;;16.00;100.00;100613.97;5051064;28;20033;-55
2023/07/23 09:38:53;;;;;;;8.15;4.28;;;;;;;16.02;100.00;100617.50;5039321;28;20969;-55
2023/07/23 09:41:19;;;;;;;10.25;3.92;;;;;;;16.00;100.00;100616.59;5050644;28;20501;-54
2023/07/23 09:43:44;;;;;;;9.13;4.10;;;;;;;15.99;100.00;100614.88;5049371;28;20033;-55
2023/07/23 09:46:10;;;;;;;10.23;4.60;;;;;;;15.98;100.00;100611.34;5050555;28;20025;-55
2023/07/23 09:48:37;;;;;;;8.93;4.30;;;;;;;15.98;100.00;100607.88;5049516;28;20032;-55
2023/07/23 09:51:03;;;;;;;7.70;4.25;;;;;;;15.96;100.00;100612.22;5050895;28;20060;-54
2023/07/23 09:53:29;;;;;;;9.18;4.07;;;;;;;15.95;100.00;100615.75;5050028;28;20116;-55
2023/07/23 09:55:55;;;;;;;8.23;4.20;;;;;;;15.99;100.00;100622.75;5050195;28;20379;-55
2023/07/23 09:58:23;;;;;;;7.35;3.88;;;;;;;16.01;100.00;100621.00;5049361;28;20067;-55
2023/07/23 10:00:49;;;;;;;8.43;3.95;;;;;;;16.02;100.00;100633.25;5043126;28;20040;-55
2023/07/23 10:03:17;;;;;;;7.25;3.67;;;;;;;15.99;100.00;100617.50;5042366;28;20569;-55
2023/07/23 10:05:42;;;;;;;7.60;3.72;;;;;;;16.02;100.00;100622.75;5043351;28;20072;-55
2023/07/23 10:08:08;;;;;;;7.85;3.90;;;;;;;15.97;100.00;100624.50;5038202;28;20116;-55
2023/07/23 10:10:33;;;;;;;6.20;3.47;;;;;;;15.96;100.00;100626.25;5048006;28;20029;-55
2023/07/23 10:12:58;;;;;;;6.32;3.35;;;;;;;15.92;100.00;100618.41;5050248;28;20021;-55
2023/07/23 10:15:24;;;;;;;5.53;3.10;;;;;;;15.87;100.00;100628.88;5050185;28;20025;-54
2023/07/23 10:17:54;;;;;;;5.90;3.20;;;;;;;15.85;100.00;100633.28;5049507;28;20040;-55
2023/07/23 10:20:21;;;;;;;7.63;3.70;;;;;;;15.84;100.00;100634.16;5049901;28;20041;-54
2023/07/23 10:22:47;;;;;;;6.72;3.15;;;;;;;15.84;100.00;100635.91;5050061;28;20032;-55
2023/07/23 10:25:33;;;;;;;6.32;2.80;;;;;;;15.89;100.00;100636.75;5049038;28;20078;-55
2023/07/23 10:28:03;;;;;;;5.57;2.80;;;;;;;15.91;100.00;100629.78;5035971;28;20286;-55
2023/07/23 10:30:30;;;;;;;6.25;3.00;;;;;;;15.91;100.00;100632.41;5031726;28;21338;-55
2023/07/23 10:33:11;;;;;;;5.32;2.80;;;;;;;15.93;100.00;100630.63;5033580;28;20036;-55
2023/07/23 10:35:51;;;;;;;4.95;2.85;;;;;;;15.95;100.00;100634.16;5032136;28;20496;-55
2023/07/23 10:38:30;;;;;;;5.35;2.80;;;;;;;15.98;100.00;100639.41;5029952;28;20029;-55
2023/07/23 10:40:55;;;;;;;5.38;3.15;;;;;;;16.00;100.00;100640.25;5034618;28;20080;-55
2023/07/23 10:43:21;;;;;;;5.18;2.78;;;;;;;16.03;100.00;100637.63;5033711;28;20041;-55
2023/07/23 10:46:03;;;;;;;5.97;3.20;;;;;;;16.07;100.00;100630.63;5035310;28;20017;-55
2023/07/23 10:48:42;;;;;;;4.90;2.50;;;;;;;16.14;100.00;100638.47;5039244;28;20048;-55
2023/07/23 10:51:09;;;;;;;5.20;3.00;;;;;;;16.15;100.00;100629.72;5036033;28;20025;-55
2023/07/23 10:53:53;;;;;;;6.32;2.92;;;;;;;16.20;100.00;100634.09;5042186;28;20034;-54
2023/07/23 10:56:32;;;;;;;5.90;3.17;;;;;;;16.20;100.00;100631.47;5036195;28;20426;-55
2023/07/23 10:59:03;;;;;;;6.38;2.70;;;;;;;16.25;100.00;100633.19;5044136;28;20090;-55
2023/07/23 11:01:31;;;;;;;5.30;3.30;;;;;;;16.27;100.00;100628.78;5038262;28;20036;-55
2023/07/23 11:03:57;;;;;;;5.00;3.08;;;;;;;16.28;100.00;100629.66;5036388;28;20405;-55
2023/07/23 11:06:31;;;;;;;5.88;3.20;;;;;;;16.33;100.00;100635.78;5042312;28;20066;-55
2023/07/23 11:08:58;;;;;;;6.93;3.47;;;;;;;16.40;100.00;100632.25;5035393;28;20034;-55